createdAt,value
2018-09-13T00:02:22.803Z,22.40
2018-09-13T00:04:50.916Z,23.13
2018-09-13T00:07:19.017Z,22.70
2018-09-13T00:09:47.105Z,24.10
2018-09-13T00:12:15.239Z,22.03
2018-09-13T00:14:43.334Z,23.77
2018-09-13T00:17:11.413Z,23.20
2018-09-13T00:19:39.511Z,23.23
2018-09-13T00:22:07.607Z,21.03
2018-09-13T00:24:35.693Z,22.57
2018-09-13T00:27:03.792Z,23.03
2018-09-13T00:29:31.883Z,20.03
2018-09-13T00:31:59.984Z,19.80
2018-09-13T00:34:28.065Z,21.83
2018-09-13T00:36:56.150Z,21.67
2018-09-13T00:39:24.244Z,17.70
2018-09-13T00:41:52.340Z,19.90
2018-09-13T00:44:20.428Z,17.40
2018-09-13T00:46:48.527Z,15.73
2018-09-13T00:49:16.615Z,18.07
2018-09-13T00:51:44.698Z,17.73
2018-09-13T00:54:12.802Z,18.40
2018-09-13T00:56:40.895Z,15.77
2018-09-13T00:59:09.008Z,18.20
2018-09-13T01:01:37.116Z,22.27
2018-09-13T01:04:05.298Z,16.90
2018-09-13T01:06:33.663Z,16.40
2018-09-13T01:09:01.795Z,18.83
2018-09-13T01:11:29.971Z,15.63
2018-09-13T01:13:58.124Z,18.37
2018-09-13T01:16:26.258Z,19.53
2018-09-13T01:18:54.407Z,20.77
2018-09-13T01:21:22.641Z,19.67
2018-09-13T01:23:50.787Z,18.97
2018-09-13T01:26:18.913Z,20.17
2018-09-13T01:28:47.075Z,17.10
2018-09-13T01:31:15.212Z,20.40
2018-09-13T01:33:43.344Z,20.57
2018-09-13T01:36:11.488Z,17.87
2018-09-13T01:38:39.640Z,18.93
2018-09-13T01:41:07.761Z,22.40
2018-09-13T01:43:35.904Z,21.03
2018-09-13T01:46:04.070Z,22.00
2018-09-13T01:48:32.206Z,24.27
2018-09-13T01:51:00.342Z,20.53
2018-09-13T01:53:28.499Z,24.33
2018-09-13T01:55:56.644Z,26.53
2018-09-13T01:58:24.770Z,26.20
2018-09-13T02:00:52.955Z,25.27
2018-09-13T02:03:21.056Z,26.87
2018-09-13T02:05:49.361Z,26.10
2018-09-13T02:08:17.489Z,26.30
2018-09-13T02:10:45.583Z,27.73
2018-09-13T02:13:13.695Z,27.67
2018-09-13T02:15:41.796Z,28.63
2018-09-13T02:18:09.900Z,27.13
2018-09-13T02:20:38.199Z,26.60
2018-09-13T02:23:06.298Z,26.87
2018-09-13T02:25:34.392Z,31.00
2018-09-13T02:28:02.502Z,27.13
2018-09-13T02:30:30.584Z,28.10
2018-09-13T02:32:58.712Z,25.90
2018-09-13T02:35:26.816Z,28.60
2018-09-13T02:37:54.920Z,27.50
2018-09-13T02:40:23.044Z,26.67
2018-09-13T02:42:51.156Z,30.87
2018-09-13T02:45:19.229Z,28.70
2018-09-13T02:47:47.342Z,29.30
2018-09-13T02:50:15.430Z,30.10
2018-09-13T02:52:43.522Z,31.57
2018-09-13T02:55:11.616Z,32.10
2018-09-13T02:57:39.696Z,30.87
2018-09-13T03:00:08.459Z,30.20
2018-09-13T03:02:36.678Z,34.13
2018-09-13T03:05:04.823Z,35.70
2018-09-13T03:07:32.975Z,32.30
2018-09-13T03:10:01.109Z,32.43
2018-09-13T03:12:29.244Z,33.40
2018-09-13T03:14:57.392Z,34.97
2018-09-13T03:17:25.551Z,32.13
2018-09-13T03:19:53.716Z,35.90
2018-09-13T03:22:21.856Z,34.47
2018-09-13T03:24:49.996Z,34.63
2018-09-13T03:27:18.121Z,31.27
2018-09-13T03:29:46.295Z,40.90
2018-09-13T03:32:14.438Z,34.33
2018-09-13T03:34:42.633Z,38.00
2018-09-13T03:37:10.756Z,36.07
2018-09-13T03:39:38.905Z,34.37
2018-09-13T03:42:07.207Z,34.60
2018-09-13T03:44:35.230Z,36.43
2018-09-13T03:47:03.374Z,37.37
2018-09-13T03:49:31.515Z,40.77
2018-09-13T03:51:59.651Z,40.20
2018-09-13T03:54:27.799Z,36.97
2018-09-13T03:56:55.941Z,42.27
2018-09-13T03:59:24.082Z,40.30
2018-09-13T04:01:52.228Z,44.03
2018-09-13T04:04:20.317Z,42.13
2018-09-13T04:06:48.431Z,42.03
2018-09-13T04:09:16.539Z,40.33
2018-09-13T04:11:44.623Z,45.10
2018-09-13T04:14:12.720Z,39.53
2018-09-13T04:16:40.819Z,41.13
2018-09-13T04:19:08.911Z,44.47
2018-09-13T04:21:37.016Z,39.53
2018-09-13T04:24:05.380Z,41.63
2018-09-13T04:26:33.457Z,38.93
2018-09-13T04:29:01.552Z,40.20
2018-09-13T04:31:29.651Z,35.10
2018-09-13T04:33:57.746Z,37.30
2018-09-13T04:36:25.864Z,37.80
2018-09-13T04:38:54.208Z,36.20
2018-09-13T04:41:22.494Z,35.40
2018-09-13T04:43:50.587Z,35.70
2018-09-13T04:46:18.698Z,34.20
2018-09-13T04:48:46.780Z,34.50
2018-09-13T04:51:14.883Z,34.83
2018-09-13T04:53:42.965Z,29.90
2018-09-13T04:56:11.198Z,28.07
2018-09-13T04:58:40.270Z,29.47
2018-09-13T05:01:09.094Z,26.73
2018-09-13T05:03:38.036Z,28.10
2018-09-13T05:06:06.375Z,25.37
2018-09-13T05:08:34.453Z,23.47
2018-09-13T05:11:02.563Z,21.03
2018-09-13T05:13:30.792Z,19.10
2018-09-13T05:15:59.492Z,20.03
2018-09-13T05:18:28.473Z,19.53
2018-09-13T05:20:56.565Z,17.83
2018-09-13T05:23:24.672Z,20.63
2018-09-13T05:25:52.775Z,18.47
2018-09-13T05:28:20.892Z,17.43
2018-09-13T05:30:48.991Z,16.50
2018-09-13T05:33:17.077Z,18.07
2018-09-13T05:35:45.192Z,15.97
2018-09-13T05:38:13.293Z,13.73
2018-09-13T05:40:41.385Z,13.17
2018-09-13T05:43:09.473Z,16.87
2018-09-13T05:45:37.569Z,14.80
2018-09-13T05:48:05.665Z,12.43
2018-09-13T05:50:33.755Z,12.07
2018-09-13T05:53:01.852Z,12.40
2018-09-13T05:55:29.947Z,14.90
2018-09-13T05:57:58.108Z,12.77
2018-09-13T06:03:00.818Z,12.90
2018-09-13T06:05:28.919Z,11.70
2018-09-13T06:07:57.446Z,11.00
2018-09-13T06:10:25.520Z,11.20
2018-09-13T06:12:53.623Z,13.77
2018-09-13T06:15:21.710Z,13.60
2018-09-13T06:17:49.808Z,13.03
2018-09-13T06:20:17.896Z,15.27
2018-09-13T06:22:53.024Z,12.93
2018-09-13T06:25:21.115Z,13.93
2018-09-13T06:27:49.210Z,16.17
2018-09-13T06:30:17.304Z,14.80
2018-09-13T06:32:45.399Z,15.97
2018-09-13T06:35:13.491Z,16.50
2018-09-13T06:37:41.604Z,15.10
2018-09-13T06:40:09.698Z,18.30
2018-09-13T06:42:37.912Z,15.90
2018-09-13T06:45:06.395Z,15.90
2018-09-13T06:47:34.679Z,15.93
2018-09-13T06:50:02.808Z,18.57
2018-09-13T06:52:30.913Z,16.00
2018-09-13T06:54:59.008Z,16.60
2018-09-13T06:57:27.108Z,15.80
2018-09-13T06:59:55.217Z,13.77
2018-09-13T07:02:23.402Z,14.43
2018-09-13T07:04:51.688Z,17.67
2018-09-13T07:07:19.815Z,17.23
2018-09-13T07:09:47.929Z,16.10
2018-09-13T07:12:16.058Z,15.37
2018-09-13T07:14:44.179Z,13.07
2018-09-13T07:17:12.308Z,13.87
2018-09-13T07:19:40.616Z,15.17
2018-09-13T07:22:08.768Z,13.83
2018-09-13T07:24:36.884Z,10.90
2018-09-13T07:27:05.007Z,11.90
2018-09-13T07:29:33.135Z,13.20
2018-09-13T07:32:01.237Z,12.97
2018-09-13T07:34:29.366Z,11.93
2018-09-13T07:36:57.484Z,10.10
2018-09-13T07:39:25.606Z,11.40
2018-09-13T07:41:53.748Z,11.33
2018-09-13T07:44:21.853Z,10.43
2018-09-13T07:46:49.979Z,11.73
2018-09-13T07:49:18.165Z,9.53
2018-09-13T07:51:46.209Z,7.90
2018-09-13T07:54:14.338Z,8.63
2018-09-13T07:56:42.455Z,10.53
2018-09-13T07:59:10.565Z,11.10
2018-09-13T08:01:38.691Z,10.30
2018-09-13T08:04:07.331Z,8.07
2018-09-13T08:06:35.644Z,9.43
2018-09-13T08:09:05.845Z,9.50
2018-09-13T08:11:33.953Z,10.60
2018-09-13T08:14:02.079Z,8.87
2018-09-13T08:16:30.196Z,7.60
2018-09-13T08:18:58.324Z,8.90
2018-09-13T08:21:26.446Z,7.27
2018-09-13T08:23:54.541Z,7.37
2018-09-13T08:26:22.642Z,6.83
2018-09-13T08:28:50.857Z,7.53
2018-09-13T08:31:18.965Z,5.80
2018-09-13T08:33:47.081Z,8.43
2018-09-13T08:36:15.193Z,5.83
2018-09-13T08:38:43.328Z,5.83
2018-09-13T08:41:11.451Z,5.97
2018-09-13T08:43:39.573Z,7.47
2018-09-13T08:46:07.684Z,6.47
2018-09-13T08:48:35.797Z,10.77
2018-09-13T08:51:03.916Z,6.13
2018-09-13T08:53:32.074Z,7.50
2018-09-13T08:56:00.210Z,6.50
2018-09-13T08:58:28.344Z,5.97
2018-09-13T09:00:56.677Z,10.93
2018-09-13T09:03:24.808Z,7.30
2018-09-13T09:05:52.938Z,7.77
2018-09-13T09:08:21.061Z,5.60
2018-09-13T09:10:49.183Z,5.00
2018-09-13T09:13:17.312Z,4.80
2018-09-13T09:15:45.431Z,5.07
2018-09-13T09:18:13.539Z,5.53
2018-09-13T09:20:41.650Z,4.57
2018-09-13T09:23:09.775Z,6.77
2018-09-13T09:25:37.901Z,4.37
2018-09-13T09:28:06.031Z,6.33
2018-09-13T09:30:34.312Z,5.53
2018-09-13T09:33:02.444Z,6.07
2018-09-13T09:35:30.583Z,5.70
2018-09-13T09:37:58.666Z,5.63
2018-09-13T09:40:26.830Z,11.67
2018-09-13T09:42:54.943Z,6.80
2018-09-13T09:45:23.064Z,5.90
2018-09-13T09:47:51.173Z,14.20
2018-09-13T09:50:19.346Z,29.63
2018-09-13T09:52:47.492Z,7.93
2018-09-13T09:55:19.885Z,8.07
2018-09-13T09:57:48.028Z,6.77
2018-09-13T10:00:16.128Z,7.63
2018-09-13T10:02:44.251Z,7.60
2018-09-13T10:08:15.857Z,6.07
2018-09-13T10:10:43.945Z,6.10
2018-09-13T10:13:12.045Z,5.60
2018-09-13T10:15:45.588Z,6.63
2018-09-13T10:18:18.977Z,7.37
2018-09-13T10:20:52.485Z,7.10
2018-09-13T10:23:26.164Z,6.67
2018-09-13T10:25:59.742Z,5.80
2018-09-13T10:28:33.345Z,6.70
2018-09-13T10:32:07.778Z,7.20
2018-09-13T10:34:41.464Z,9.30
2018-09-13T10:37:14.910Z,8.13
2018-09-13T10:39:48.450Z,7.77
2018-09-13T10:42:22.101Z,6.97
2018-09-13T10:45:55.444Z,6.57
2018-09-13T10:48:27.201Z,7.90
2018-09-13T10:51:00.679Z,8.30
2018-09-13T10:53:36.085Z,9.37
2018-09-13T10:56:05.101Z,10.13
2018-09-13T10:58:33.941Z,10.13
2018-09-13T11:01:02.117Z,10.10
2018-09-13T11:03:30.204Z,11.03
2018-09-13T11:05:58.296Z,9.53
2018-09-13T11:08:26.516Z,9.03
2018-09-13T11:10:54.778Z,13.33
2018-09-13T11:13:28.934Z,10.77
2018-09-13T11:15:57.008Z,10.57
2018-09-13T11:18:25.096Z,11.30
2018-09-13T11:20:53.182Z,11.13
2018-09-13T11:23:21.265Z,11.47
2018-09-13T11:25:49.397Z,10.47
2018-09-13T11:28:17.490Z,11.00
2018-09-13T11:30:49.828Z,14.10
2018-09-13T11:33:17.926Z,10.50
2018-09-13T11:35:46.028Z,11.73
2018-09-13T11:38:14.152Z,11.27
2018-09-13T11:40:42.442Z,12.97
2018-09-13T11:43:10.331Z,10.83
2018-09-13T11:45:38.430Z,11.93
2018-09-13T11:48:06.531Z,10.73
2018-09-13T11:50:34.629Z,10.60
2018-09-13T11:53:02.712Z,10.93
2018-09-13T11:55:30.788Z,13.83
2018-09-13T11:57:58.881Z,13.73
2018-09-13T12:00:27.293Z,15.33
2018-09-13T12:02:55.410Z,13.80
2018-09-13T12:05:23.509Z,15.07
2018-09-13T12:07:51.629Z,17.60
2018-09-13T12:10:19.733Z,17.90
2018-09-13T12:12:47.930Z,21.50
2018-09-13T12:15:16.242Z,22.13
2018-09-13T12:17:44.390Z,21.10
2018-09-13T12:20:12.484Z,19.33
2018-09-13T12:22:40.570Z,19.07
2018-09-13T12:25:08.683Z,18.13
2018-09-13T12:27:36.844Z,15.93
2018-09-13T12:30:05.220Z,21.50
2018-09-13T12:32:33.358Z,20.00
2018-09-13T12:35:01.413Z,22.27
2018-09-13T12:37:29.491Z,20.60
2018-09-13T12:39:57.592Z,22.70
2018-09-13T12:42:25.752Z,23.57
2018-09-13T12:44:53.892Z,22.60
2018-09-13T12:47:21.968Z,24.73
2018-09-13T12:49:51.140Z,19.33
2018-09-13T12:52:19.288Z,22.10
2018-09-13T12:54:47.345Z,24.03
2018-09-13T12:57:15.465Z,25.40
2018-09-13T12:59:43.577Z,24.93
2018-09-13T13:02:11.716Z,26.50
2018-09-13T13:04:40.620Z,27.10
2018-09-13T13:07:15.116Z,25.87
2018-09-13T13:09:43.245Z,27.37
2018-09-13T13:12:11.390Z,28.90
2018-09-13T13:14:39.488Z,30.83
2018-09-13T13:17:07.589Z,32.73
2018-09-13T13:19:35.682Z,30.33
2018-09-13T13:22:03.915Z,28.00
2018-09-13T13:24:31.999Z,30.27
2018-09-13T13:27:00.107Z,29.30
2018-09-13T13:29:28.217Z,28.80
2018-09-13T13:31:56.284Z,24.47
2018-09-13T13:36:58.875Z,25.80
2018-09-13T13:39:26.968Z,23.17
2018-09-13T13:41:55.099Z,27.10
2018-09-13T13:44:23.199Z,25.07
2018-09-13T13:46:51.295Z,25.47
2018-09-13T13:49:19.437Z,24.67
2018-09-13T13:51:47.492Z,23.57
2018-09-13T13:54:15.576Z,25.03
2018-09-13T13:56:43.768Z,25.50
2018-09-13T13:59:11.839Z,23.47
2018-09-13T14:01:39.934Z,29.10
2018-09-13T14:04:08.042Z,31.90
2018-09-13T14:06:36.152Z,27.57
2018-09-13T14:09:08.292Z,27.43
2018-09-13T14:11:36.404Z,28.83
2018-09-13T14:14:04.516Z,30.50
2018-09-13T14:16:32.625Z,28.73
2018-09-13T14:19:00.727Z,32.47
2018-09-13T14:21:28.831Z,32.10
2018-09-13T14:23:56.954Z,32.13
2018-09-13T14:26:25.045Z,27.90
2018-09-13T14:28:53.216Z,30.97
2018-09-13T14:31:21.329Z,29.53
2018-09-13T14:33:49.420Z,31.13
2018-09-13T14:36:17.511Z,27.03
2018-09-13T14:38:45.607Z,30.27
2018-09-13T14:41:13.739Z,27.87
2018-09-13T14:43:41.814Z,26.63
2018-09-13T14:46:09.905Z,27.87
2018-09-13T14:48:38.026Z,30.13
2018-09-13T14:51:06.287Z,30.50
2018-09-13T14:53:34.410Z,26.40
2018-09-13T14:56:02.495Z,24.60
2018-09-13T14:58:30.562Z,29.93
2018-09-13T15:00:58.653Z,28.63
2018-09-13T15:03:26.839Z,30.70
2018-09-13T15:05:55.014Z,26.00
2018-09-13T15:08:23.131Z,27.90
2018-09-13T15:10:51.237Z,20.33
2018-09-13T15:13:20.177Z,21.90
2018-09-13T15:15:48.312Z,21.93
2018-09-13T15:18:16.446Z,21.33
2018-09-13T15:20:44.543Z,24.63
2018-09-13T15:23:12.684Z,20.30
2018-09-13T15:25:40.797Z,22.50
2018-09-13T15:28:08.953Z,22.10
2018-09-13T15:30:37.055Z,23.63
2018-09-13T15:33:05.165Z,24.60
2018-09-13T15:38:07.718Z,23.53
2018-09-13T15:40:35.830Z,26.90
2018-09-13T15:43:09.655Z,22.63
2018-09-13T15:45:37.782Z,21.30
2018-09-13T15:48:05.863Z,19.20
2018-09-13T15:50:33.990Z,18.97
2018-09-13T15:53:02.140Z,21.00
2018-09-13T15:55:30.415Z,20.97
2018-09-13T15:57:58.558Z,19.40
2018-09-13T16:00:26.653Z,16.57
2018-09-13T16:02:54.775Z,20.37
2018-09-13T16:05:22.880Z,18.63
2018-09-13T16:07:50.980Z,18.43
2018-09-13T16:12:53.836Z,16.70
2018-09-13T16:15:21.884Z,17.83
2018-09-13T16:17:49.982Z,18.80
2018-09-13T16:20:18.076Z,21.93
2018-09-13T16:22:46.180Z,21.00
2018-09-13T16:25:14.273Z,20.67
2018-09-13T16:27:42.395Z,23.77
2018-09-13T16:30:10.483Z,24.20
2018-09-13T16:32:38.583Z,21.97
2018-09-13T16:35:06.987Z,22.77
2018-09-13T16:37:40.307Z,24.70
2018-09-13T16:40:13.828Z,24.30
2018-09-13T16:47:05.247Z,23.90
2018-09-13T16:49:33.917Z,22.20
2018-09-13T16:52:02.014Z,22.07
2018-09-13T16:54:30.158Z,21.77
2018-09-13T16:56:58.266Z,20.10
2018-09-13T16:59:26.377Z,25.53
2018-09-13T17:01:54.475Z,19.50
2018-09-13T17:04:22.593Z,18.43
2018-09-13T17:06:50.767Z,19.87
2018-09-13T17:09:18.840Z,18.77
2018-09-13T17:11:46.949Z,19.57
2018-09-13T17:14:15.061Z,19.30
2018-09-13T17:16:43.197Z,19.53
2018-09-13T17:19:11.334Z,18.10
2018-09-13T17:21:39.508Z,18.80
2018-09-13T17:24:07.633Z,20.30
2018-09-13T17:26:35.759Z,18.60
2018-09-13T17:29:03.881Z,19.67
2018-09-13T17:31:32.045Z,17.97
2018-09-13T17:34:00.326Z,18.93
2018-09-13T17:36:35.075Z,21.93
2018-09-13T17:39:03.235Z,19.30
2018-09-13T17:41:31.353Z,21.37
2018-09-13T17:43:59.464Z,22.30
2018-09-13T17:46:27.565Z,20.93
2018-09-13T17:48:55.676Z,23.73
2018-09-13T17:51:23.780Z,22.27
2018-09-13T17:53:51.889Z,20.40
2018-09-13T17:56:20.028Z,22.63
2018-09-13T17:58:48.379Z,22.40
2018-09-13T18:01:16.536Z,21.87
2018-09-13T18:03:44.771Z,23.30
2018-09-13T18:06:12.858Z,22.23
2018-09-13T18:08:40.932Z,23.17
2018-09-13T18:11:09.032Z,22.13
2018-09-13T18:13:37.167Z,22.40
2018-09-13T18:16:05.260Z,21.40
2018-09-13T18:18:33.348Z,22.90
2018-09-13T18:21:01.459Z,21.13
2018-09-13T18:23:29.696Z,23.13
2018-09-13T18:25:57.888Z,23.20
2018-09-13T18:28:26.114Z,21.07
2018-09-13T18:30:54.315Z,22.57
2018-09-13T18:33:22.710Z,22.60
2018-09-13T18:35:51.285Z,22.40
2018-09-13T18:38:19.391Z,21.03
2018-09-13T18:40:47.530Z,20.03
2018-09-13T18:43:15.620Z,20.20
2018-09-13T18:45:43.999Z,21.33
2018-09-13T18:48:12.156Z,21.77
2018-09-13T18:50:40.290Z,21.17
2018-09-13T18:53:08.446Z,22.63
2018-09-13T18:55:36.551Z,21.50
2018-09-13T18:58:04.632Z,18.87
2018-09-13T19:00:32.792Z,20.70
2018-09-13T19:03:00.878Z,21.23
2018-09-13T19:05:29.331Z,21.70
2018-09-13T19:07:57.421Z,21.77
2018-09-13T19:10:25.542Z,23.53
2018-09-13T19:12:53.688Z,22.43
2018-09-13T19:15:21.830Z,25.50
2018-09-13T19:17:49.953Z,23.90
2018-09-13T19:20:24.465Z,23.70
2018-09-13T19:22:53.104Z,27.13
2018-09-13T19:25:21.447Z,22.20
2018-09-13T19:27:49.891Z,22.20
2018-09-13T19:30:18.171Z,23.30
2018-09-13T19:32:46.465Z,24.40
2018-09-13T19:35:14.700Z,26.17
2018-09-13T19:37:43.146Z,26.60
2018-09-13T19:40:11.613Z,27.50
2018-09-13T19:42:39.734Z,25.33
2018-09-13T19:45:07.866Z,26.87
2018-09-13T19:47:36.143Z,25.87
2018-09-13T19:50:04.268Z,24.30
2018-09-13T19:52:32.503Z,26.20
2018-09-13T19:55:00.760Z,24.67
2018-09-13T19:57:28.876Z,26.27
2018-09-13T19:59:57.050Z,23.90
2018-09-13T20:02:25.160Z,22.80
2018-09-13T20:04:53.333Z,28.63
2018-09-13T20:07:21.399Z,27.00
2018-09-13T20:09:49.515Z,26.03
2018-09-13T20:12:17.788Z,22.90
2018-09-13T20:14:45.768Z,28.20
2018-09-13T20:17:13.889Z,28.20
2018-09-13T20:19:42.096Z,26.37
2018-09-13T20:22:11.587Z,27.17
2018-09-13T20:24:39.776Z,31.13
2018-09-13T20:27:07.994Z,23.50
2018-09-13T20:29:36.529Z,26.00
2018-09-13T20:32:04.699Z,26.37
2018-09-13T20:34:32.825Z,24.73
2018-09-13T20:37:00.945Z,24.77
2018-09-13T20:39:29.082Z,30.10
2018-09-13T20:41:57.398Z,28.47
2018-09-13T20:44:25.524Z,23.70
2018-09-13T20:46:53.854Z,28.03
2018-09-13T20:49:21.990Z,28.40
2018-09-13T20:51:50.112Z,27.00
2018-09-13T20:54:18.274Z,30.43
2018-09-13T20:56:46.425Z,30.27
2018-09-13T20:59:14.589Z,28.30
2018-09-13T21:01:42.753Z,26.40
2018-09-13T21:04:10.942Z,26.30
2018-09-13T21:06:39.093Z,29.07
2018-09-13T21:09:09.174Z,30.63
2018-09-13T21:11:37.306Z,32.93
2018-09-13T21:14:05.408Z,28.60
2018-09-13T21:16:33.499Z,30.20
2018-09-13T21:19:01.656Z,29.80
2018-09-13T21:21:29.759Z,29.70
2018-09-13T21:23:57.873Z,28.97
2018-09-13T21:26:25.966Z,28.20
2018-09-13T21:28:54.084Z,28.00
2018-09-13T21:31:22.248Z,35.50
2018-09-13T21:33:50.365Z,31.03
2018-09-13T21:36:18.509Z,33.40
2018-09-13T21:38:46.655Z,30.17
2018-09-13T21:41:14.789Z,31.97
2018-09-13T21:43:42.899Z,29.33
2018-09-13T21:46:10.998Z,29.80
2018-09-13T21:48:39.091Z,28.13
2018-09-13T21:51:07.184Z,32.27
2018-09-13T21:53:35.339Z,34.20
2018-09-13T21:56:03.416Z,31.10
2018-09-13T21:58:31.503Z,32.93
2018-09-13T22:00:59.616Z,30.77
2018-09-13T22:03:27.718Z,34.73
2018-09-13T22:05:55.844Z,30.57
2018-09-13T22:08:23.976Z,32.37
2018-09-13T22:10:52.079Z,33.60
2018-09-13T22:13:20.179Z,34.73
2018-09-13T22:15:48.284Z,32.43
2018-09-13T22:18:16.393Z,33.03
2018-09-13T22:20:44.496Z,32.77
2018-09-13T22:23:12.599Z,38.00
2018-09-13T22:25:40.705Z,32.50
2018-09-13T22:28:08.839Z,30.77
2018-09-13T22:30:36.989Z,31.03
2018-09-13T22:33:05.217Z,36.63
2018-09-13T22:35:33.345Z,37.07
2018-09-13T22:38:01.478Z,33.37
2018-09-13T22:40:29.632Z,35.33
2018-09-13T22:42:57.741Z,35.90
2018-09-13T22:45:25.865Z,32.57
2018-09-13T22:47:53.986Z,34.90
2018-09-13T22:50:22.090Z,36.13
2018-09-13T22:52:50.212Z,33.17
2018-09-13T22:55:18.316Z,37.97
2018-09-13T22:57:46.441Z,33.33
2018-09-13T23:00:14.535Z,31.30
2018-09-13T23:02:47.485Z,37.70
2018-09-13T23:05:16.135Z,38.20
2018-09-13T23:07:44.517Z,32.13
2018-09-13T23:10:12.646Z,34.03
2018-09-13T23:12:40.766Z,30.83
2018-09-13T23:15:08.896Z,35.60
2018-09-13T23:17:37.266Z,38.33
2018-09-13T23:20:05.491Z,36.70
2018-09-13T23:22:33.596Z,34.13
2018-09-13T23:25:01.833Z,35.50
2018-09-13T23:27:29.936Z,36.37
2018-09-13T23:29:58.044Z,33.63
2018-09-13T23:32:26.458Z,38.40
2018-09-13T23:34:54.559Z,32.70
2018-09-13T23:37:22.681Z,35.97
2018-09-13T23:39:50.900Z,35.47
2018-09-13T23:42:18.884Z,33.30
2018-09-13T23:44:46.994Z,34.17
2018-09-13T23:47:15.109Z,33.00
2018-09-13T23:49:43.216Z,35.10
2018-09-13T23:52:11.325Z,34.47
2018-09-13T23:54:45.972Z,35.17
2018-09-13T23:57:14.086Z,35.47
2018-09-13T23:59:42.209Z,37.20
